Αναφορές METAR Αεροδρομίων

 

LGTS - THESSALONIKI - GREECE
Ενημερώθηκε: 23/09/2017 20:50
Αραιές Νεφώσεις
Αραιές Νεφώσεις
 Ανεμος από varies
Ανεμος: varies 6 km/h
Θερμοκρασία: 21°C
Σημείο Δρόσου: 7°C
Υγρασία: 40%
Βαρόμετρο: 1019 hPa
Clouds: Αραιές Νεφώσεις
Visibility: 10 km
Cloud details: Αραιές Νεφώσεις 914 m
2017/09/23 17:50 LGTS 231750Z VRB03KT 9999 FEW030 21/07 Q1019 NOSIG
LGLR - LARTISA - GREECE
Ενημερώθηκε: 23/09/2017 20:50
Αίθριος
Αίθριος
 Ανεμος από ΑΒΑ
Ανεμος: ΑΒΑ 7 km/h
Θερμοκρασία: 18°C
Σημείο Δρόσου: 5°C
Υγρασία: 43%
Βαρόμετρο: 1019 hPa
Περίληψη: Αίθριος
Visibility: greater than 10 km
2017/09/23 17:50 LGLR 231750Z 07004KT CAVOK 18/05 Q1019 BLU
 
LGKZ - KOZANI - GREECE
Ενημερώθηκε: 23/09/2017 20:50
Αίθριος
Αίθριος
 Ανεμος από calm
Ανεμος: Απνοια
Θερμοκρασία: 16°C
Σημείο Δρόσου: 5°C
Υγρασία: 48%
Βαρόμετρο: 1021 hPa
Περίληψη: Αίθριος
Visibility: greater than 10 km
2017/09/23 17:50 LGKZ 231750Z 00000KT CAVOK 16/05 Q1021
LGKV - KAVALA - GREECE
Ενημερώθηκε: 23/09/2017 20:50
Αραιές Νεφώσεις
Αραιές Νεφώσεις
 Ανεμος από ΒΒΑ
Ανεμος: ΒΒΑ 9 km/h
Θερμοκρασία: 18°C
Σημείο Δρόσου: 12°C
Υγρασία: 68%
Βαρόμετρο: 1019 hPa
Clouds: Αραιές Νεφώσεις
Visibility: 10 km
Cloud details: Αραιές Νεφώσεις 762 m
2017/09/23 17:50 LGKV 231750Z 02005KT 9999 FEW025 18/12 Q1019
 
LGIO - IOANNINA - GREECE
Ενημερώθηκε: 23/09/2017 20:50
Αίθριος
Αίθριος
 Ανεμος από varies
Ανεμος: varies 0 km/h
Θερμοκρασία: 16°C
Σημείο Δρόσου: 9°C
Υγρασία: 63%
Βαρόμετρο: 1022 hPa
Περίληψη: Αίθριος
Visibility: greater than 10 km
2017/09/23 17:50 LGIO 231750Z /////KT CAVOK 16/09 Q1022
LGBL - BOLOS - GREECE
Ενημερώθηκε: 23/09/2017 20:50
Αίθριος
Αίθριος
 Ανεμος από ΝΝΑ
Ανεμος: ΝΝΑ 7 km/h
Θερμοκρασία: 19°C
Σημείο Δρόσου: 8°C
Υγρασία: 49%
Βαρόμετρο: 1019 hPa
Περίληψη: Αίθριος
Visibility: greater than 10 km
2017/09/23 17:50 LGBL 231750Z 15004KT CAVOK 19/08 Q1019
 
LGMT - MITILINI - GREECE
Ενημερώθηκε: 23/09/2017 20:50
Αίθριος
Αίθριος
 Ανεμος από calm
Ανεμος: Απνοια
Θερμοκρασία: 20°C
Σημείο Δρόσου: 13°C
Υγρασία: 64%
Βαρόμετρο: 1019 hPa
Περίληψη: Αίθριος
Visibility: greater than 10 km
2017/09/23 17:50 LGMT 231750Z 00000KT CAVOK 20/13 Q1019
LGAV - ATHENS - GREECE
Ενημερώθηκε: 23/09/2017 20:50
Αίθριος
Αίθριος
 Ανεμος από varies
Ανεμος: varies 6 km/h
Θερμοκρασία: 19°C
Σημείο Δρόσου: 9°C
Υγρασία: 52%
Βαρόμετρο: 1020 hPa
Περίληψη: Αίθριος
Visibility: greater than 10 km
2017/09/23 17:50 LGAV 231750Z VRB03KT CAVOK 19/09 Q1020 NOSIG
 
LGRP - RODOS - GREECE
Ενημερώθηκε: 23/09/2017 20:50
Αίθριος
Αίθριος
 Ανεμος από Δ
Ανεμος: Δ 26 km/h
Θερμοκρασία: 23°C
Σημείο Δρόσου: 12°C
Υγρασία: 50%
Βαρόμετρο: 1016 hPa
Περίληψη: Αίθριος
Visibility: greater than 10 km
2017/09/23 17:50 LGRP 231750Z 28014KT CAVOK 23/12 Q1016 NOSIG
LGIR - HRAKLIO/KRITI - GREECE
Ενημερώθηκε: 23/09/2017 20:50
Μερικώς νεφελώδης
Μερικώς νεφελώδης
 Ανεμος από ΒΒΔ
Ανεμος: ΒΒΔ 9 km/h
Θερμοκρασία: 22°C
Σημείο Δρόσου: 15°C
Υγρασία: 65%
Βαρόμετρο: 1019 hPa
Clouds: Μερικώς νεφελώδης
Visibility: 10 km
Cloud details: Μερικώς νεφελώδης 610 m
2017/09/23 17:50 LGIR 231750Z 34005KT 9999 SCT020 22/15 Q1019 NOSIG
 
LGMK - MIKONOS - GREECE
Ενημερώθηκε: 23/09/2017 20:50
Αραιές Νεφώσεις
Αραιές Νεφώσεις
 Ανεμος από Β
Ανεμος: Β 15 km/h
Θερμοκρασία: 21°C
Σημείο Δρόσου: 12°C
Υγρασία: 57%
Βαρόμετρο: 1019 hPa
Clouds: Αραιές Νεφώσεις
Visibility: 10 km
Cloud details: Αραιές Νεφώσεις 610 m
2017/09/23 17:50 LGMK 231750Z 35008KT 9999 FEW020 21/12 Q1019
LGKR - KERKIRA - GREECE
Ενημερώθηκε: 23/09/2017 20:50
Αίθριος
Αίθριος
 Ανεμος από ΔΒΔ
Ανεμος: ΔΒΔ 7 km/h
Θερμοκρασία: 21°C
Σημείο Δρόσου: 17°C
Υγρασία: 78%
Βαρόμετρο: 1019 hPa
Περίληψη: Αίθριος
Visibility: greater than 10 km
2017/09/23 17:50 LGKR 231750Z 29004KT CAVOK 21/17 Q1019 NOSIG